createdAt,value
2018-02-18T00:04:39.406Z,76.84
2018-02-18T00:10:44.842Z,77.41
2018-02-18T00:16:49.501Z,77.97
2018-02-18T00:22:54.115Z,77.91
2018-02-18T00:28:58.761Z,78.31
2018-02-18T00:35:03.277Z,78.46
2018-02-18T00:41:07.916Z,78.26
2018-02-18T00:47:12.398Z,77.74
2018-02-18T00:53:17.008Z,77.75
2018-02-18T00:59:22.482Z,78.07
2018-02-18T01:05:26.955Z,78.02
2018-02-18T01:11:31.998Z,78.83
2018-02-18T01:17:36.471Z,78.36
2018-02-18T01:23:41.749Z,78.14
2018-02-18T01:29:46.359Z,78.93
2018-02-18T01:35:52.199Z,79.74
2018-02-18T01:41:56.791Z,79.10
2018-02-18T01:48:01.605Z,78.63
2018-02-18T01:54:06.085Z,78.78
2018-02-18T02:00:10.875Z,80.07
2018-02-18T02:06:15.603Z,79.17
2018-02-18T02:12:20.559Z,80.30
2018-02-18T02:18:25.368Z,80.59
2018-02-18T02:24:30.684Z,80.25
2018-02-18T02:30:35.324Z,80.61
2018-02-18T02:36:39.820Z,80.29
2018-02-18T02:42:45.109Z,80.15
2018-02-18T02:48:49.734Z,80.24
2018-02-18T02:54:54.397Z,79.92
2018-02-18T03:00:58.881Z,79.85
2018-02-18T03:07:03.420Z,80.42
2018-02-18T03:13:07.984Z,80.26
2018-02-18T03:19:12.584Z,81.36
2018-02-18T03:25:17.970Z,80.48
2018-02-18T03:31:22.644Z,80.36
2018-02-18T03:37:27.126Z,81.85
2018-02-18T03:43:31.640Z,80.73
2018-02-18T03:49:36.188Z,80.27
2018-02-18T03:55:40.655Z,80.70
2018-02-18T04:01:45.237Z,80.90
2018-02-18T04:07:50.193Z,80.57
2018-02-18T04:13:55.262Z,80.47
2018-02-18T04:19:59.761Z,80.63
2018-02-18T04:26:04.241Z,80.69
2018-02-18T04:32:08.727Z,80.93
2018-02-18T04:38:14.055Z,80.95
2018-02-18T04:44:18.837Z,81.07
2018-02-18T04:50:23.597Z,81.04
2018-02-18T04:56:28.182Z,82.01
2018-02-18T05:02:32.691Z,82.40
2018-02-18T05:08:37.452Z,82.23
2018-02-18T05:14:41.971Z,82.05
2018-02-18T05:20:46.495Z,83.14
2018-02-18T05:26:51.747Z,83.81
2018-02-18T05:32:56.510Z,84.24
2018-02-18T05:39:01.135Z,84.57
2018-02-18T05:45:05.743Z,85.12
2018-02-18T05:51:11.546Z,85.74
2018-02-18T05:57:16.117Z,84.13
2018-02-18T06:03:21.262Z,84.17
2018-02-18T06:09:25.919Z,83.52
2018-02-18T06:15:30.712Z,83.41
2018-02-18T06:21:36.170Z,83.91
2018-02-18T06:27:40.754Z,84.63
2018-02-18T06:33:45.263Z,83.65
2018-02-18T06:39:50.797Z,83.24
2018-02-18T06:58:55.355Z,85.90
2018-02-18T07:04:59.892Z,85.72
2018-02-18T07:11:05.216Z,85.32
2018-02-18T07:17:09.914Z,85.47
2018-02-18T07:23:14.408Z,83.97
2018-02-18T07:29:19.113Z,84.28
2018-02-18T07:35:23.749Z,85.15
2018-02-18T07:41:28.255Z,84.85
2018-02-18T07:47:32.887Z,84.44
2018-02-18T07:53:38.262Z,85.60
2018-02-18T07:59:42.798Z,85.67
2018-02-18T08:05:47.346Z,85.28
2018-02-18T08:11:53.756Z,84.89
2018-02-18T08:17:59.050Z,83.97
2018-02-18T08:24:04.347Z,84.53
2018-02-18T08:30:10.772Z,84.15
2018-02-18T08:36:15.272Z,83.17
2018-02-18T08:42:19.985Z,83.36
2018-02-18T08:48:24.524Z,83.01
2018-02-18T08:54:29.024Z,81.97
2018-02-18T09:00:33.761Z,80.78
2018-02-18T09:06:38.240Z,80.66
2018-02-18T09:12:43.570Z,80.75
2018-02-18T09:18:48.857Z,79.30
2018-02-18T09:24:53.761Z,78.91
2018-02-18T09:30:58.685Z,79.01
2018-02-18T09:37:03.477Z,78.98
2018-02-18T09:43:07.979Z,78.42
2018-02-18T09:49:13.238Z,78.06
2018-02-18T09:55:17.760Z,77.39
2018-02-18T10:01:22.575Z,76.05
2018-02-18T10:07:27.051Z,75.65
2018-02-18T10:13:31.533Z,75.51
2018-02-18T10:19:36.078Z,75.22
2018-02-18T10:25:41.468Z,74.22
2018-02-18T10:31:46.986Z,74.02
2018-02-18T10:37:51.595Z,72.54
2018-02-18T10:43:57.029Z,71.74
2018-02-18T10:50:03.013Z,71.81
2018-02-18T10:56:07.485Z,70.48
2018-02-18T11:02:12.265Z,71.21
2018-02-18T11:08:16.765Z,71.03
2018-02-18T11:14:22.004Z,70.25
2018-02-18T11:20:26.568Z,69.69
2018-02-18T11:26:31.053Z,67.30
2018-02-18T11:32:35.606Z,65.21
2018-02-18T11:38:40.184Z,65.29
2018-02-18T11:44:44.992Z,63.45
2018-02-18T11:50:50.504Z,63.04
2018-02-18T11:56:55.951Z,62.37
2018-02-18T12:03:00.469Z,62.35
2018-02-18T12:09:05.767Z,60.85
2018-02-18T12:15:10.558Z,58.46
2018-02-18T12:21:15.075Z,59.53
2018-02-18T12:27:19.707Z,58.82
2018-02-18T12:33:24.849Z,58.02
2018-02-18T12:39:29.323Z,56.72
2018-02-18T12:45:33.821Z,56.91
2018-02-18T12:51:38.289Z,56.10
2018-02-18T12:57:42.844Z,55.30
2018-02-18T13:03:48.201Z,53.34
2018-02-18T13:09:54.657Z,55.37
2018-02-18T13:15:59.258Z,55.41
2018-02-18T13:22:03.818Z,54.27
2018-02-18T13:28:08.320Z,51.78
2018-02-18T13:34:12.799Z,52.49
2018-02-18T13:40:17.271Z,50.41
2018-02-18T13:46:21.998Z,52.74
2018-02-18T13:52:26.474Z,51.54
2018-02-18T13:58:31.120Z,50.12
2018-02-18T14:04:35.619Z,48.39
2018-02-18T14:10:40.195Z,48.33
2018-02-18T14:16:44.967Z,48.95
2018-02-18T14:22:51.305Z,49.25
2018-02-18T14:28:55.895Z,51.17
2018-02-18T14:35:00.398Z,50.76
2018-02-18T14:41:05.641Z,52.20
2018-02-18T14:47:28.000Z,53.44
2018-02-18T14:53:50.280Z,54.53
2018-02-18T14:59:55.108Z,56.39
2018-02-18T15:05:59.753Z,57.30
2018-02-18T15:12:04.296Z,57.61
2018-02-18T15:18:09.691Z,57.06
2018-02-18T15:24:14.201Z,57.49
2018-02-18T15:30:19.654Z,57.88
2018-02-18T15:36:24.167Z,58.13
2018-02-18T15:42:28.647Z,59.01
2018-02-18T15:48:33.985Z,60.38
2018-02-18T15:54:38.503Z,61.49
2018-02-18T16:00:42.999Z,63.49
2018-02-18T16:06:48.302Z,65.16
2018-02-18T16:12:52.936Z,66.76
2018-02-18T16:18:57.446Z,67.42
2018-02-18T16:25:03.419Z,68.38
2018-02-18T16:31:07.883Z,69.37
2018-02-18T16:37:12.419Z,70.00
2018-02-18T16:43:16.988Z,70.69
2018-02-18T16:49:22.055Z,71.89
2018-02-18T16:55:26.714Z,72.08
2018-02-18T17:01:31.197Z,72.54
2018-02-18T17:07:35.739Z,72.94
2018-02-18T17:13:40.344Z,73.20
2018-02-18T17:19:44.989Z,72.70
2018-02-18T17:25:49.453Z,72.42
2018-02-18T17:31:54.228Z,72.39
2018-02-18T17:37:58.702Z,72.16
2018-02-18T17:44:03.206Z,71.89
2018-02-18T17:50:07.855Z,72.14
2018-02-18T17:56:12.444Z,71.58
2018-02-18T18:02:17.718Z,72.47
2018-02-18T18:08:22.419Z,72.39
2018-02-18T18:14:26.886Z,72.42
2018-02-18T18:20:31.487Z,73.24
2018-02-18T18:26:36.080Z,73.78
2018-02-18T18:32:41.827Z,73.83
2018-02-18T18:38:46.308Z,73.90
2018-02-18T18:44:51.011Z,74.12
2018-02-18T18:50:55.528Z,73.89
2018-02-18T18:57:00.780Z,74.45
2018-02-18T19:03:05.315Z,74.39
2018-02-18T19:09:09.912Z,74.61
2018-02-18T19:15:14.755Z,75.04
2018-02-18T19:21:19.411Z,75.58
2018-02-18T19:27:23.970Z,76.02
2018-02-18T19:33:28.469Z,76.31
2018-02-18T19:39:32.949Z,76.78
2018-02-18T19:45:37.453Z,76.91
2018-02-18T19:51:41.960Z,76.75
2018-02-18T19:57:46.431Z,76.64
2018-02-18T20:03:50.950Z,78.01
2018-02-18T20:09:55.461Z,79.23
2018-02-18T20:16:00.737Z,78.67
2018-02-18T20:22:05.199Z,78.46
2018-02-18T20:28:09.733Z,78.38
2018-02-18T20:34:14.264Z,78.57
2018-02-18T20:40:19.056Z,78.38
2018-02-18T20:46:23.756Z,78.67
2018-02-18T20:52:29.367Z,79.22
2018-02-18T20:58:34.916Z,79.17
2018-02-18T21:04:39.582Z,78.97
2018-02-18T21:10:44.195Z,79.57
2018-02-18T21:16:48.824Z,79.86
2018-02-18T21:22:54.384Z,79.42
2018-02-18T21:28:58.939Z,79.22
2018-02-18T21:35:03.426Z,78.67
2018-02-18T21:41:07.960Z,78.89
2018-02-18T21:47:13.207Z,80.20
2018-02-18T21:53:17.681Z,80.98
2018-02-18T21:59:22.202Z,81.10
2018-02-18T22:05:27.431Z,81.39
2018-02-18T22:11:31.972Z,81.00
2018-02-18T22:17:36.589Z,81.54
2018-02-18T22:23:41.117Z,81.23
2018-02-18T22:29:45.615Z,81.33
2018-02-18T22:35:50.877Z,81.40
2018-02-18T22:41:55.464Z,81.00
2018-02-18T22:48:00.031Z,81.76
2018-02-18T22:54:04.524Z,80.31
2018-02-18T23:00:09.003Z,80.39
2018-02-18T23:06:13.557Z,80.59
2018-02-18T23:12:18.051Z,80.03
2018-02-18T23:18:22.564Z,80.27
2018-02-18T23:24:27.048Z,80.38
2018-02-18T23:30:31.529Z,81.12
2018-02-18T23:36:35.996Z,80.70
2018-02-18T23:42:40.469Z,79.04
2018-02-18T23:48:44.943Z,78.18
2018-02-18T23:54:50.349Z,78.35
